Uni Wealth — VRFV4 — position and weather

sailwx.info

Track history (hours):
 
Tides and Currents Weather Stations Pressure Air Temp Water Temp Dewpoint Dewpoint Depression Visibility Wind Speed Wind Dir Waves Ship Positions

Uni Wealth

Last reported at 2016-Apr-18 07:25 UTC. Time now 2016-May-04 11:43 UTC.
Position N 01°13' E 103°30'.
Warning: this ship's position is 16 days out of date.

Length 170 m; draft 10.3 m.

Type: Cargo ship. MMSI: 477621200.

Date/timePositionNaut miles runAvg speedWind from/ knotsBaromVisibWave heightAir tempDewpointWater temp
2016-Apr-18 07:25N 01°13' E 103°30'1012.0
2016-Apr-18 06:33N 01°11' E 103°40'10 9.9
2016-Apr-18 05:33N 01°11' E 103°50'6 5.5
2016-Apr-18 04:28N 01°16' E 103°54'0 0.0
2016-Apr-18 03:13N 01°16' E 103°54'0 0.1
2016-Apr-18 00:28N 01°16' E 103°54'0 0.0
2016-Apr-17 23:28N 01°16' E 103°54'0 0.0
2016-Apr-17 22:31N 01°16' E 103°54'0 0.0
2016-Apr-17 21:28N 01°16' E 103°54'0 0.0
2016-Apr-17 20:31N 01°16' E 103°54'0 0.0
2016-Apr-17 19:31N 01°16' E 103°54'0 0.0
2016-Apr-17 18:31N 01°16' E 103°54'0 0.0
2016-Apr-17 17:28N 01°16' E 103°54'0 0.0
2016-Apr-17 16:28N 01°16' E 103°54'0 0.0
2016-Apr-17 15:28N 01°16' E 103°54'0 0.0
2016-Apr-17 14:28N 01°16' E 103°54'0 0.0
2016-Apr-17 13:31N 01°16' E 103°54'0 0.0
2016-Apr-17 12:31N 01°16' E 103°54'0 0.1
2016-Apr-17 11:22N 01°16' E 103°54'0 0.1
2016-Apr-17 10:31N 01°16' E 103°54'0 0.0
2016-Apr-17 08:31N 01°16' E 103°54'0 0.1
2016-Apr-17 07:22N 01°16' E 103°54'0 0.1
2016-Apr-17 06:28N 01°16' E 103°54'0 0.1
2016-Apr-17 05:34N 01°16' E 103°54'0 0.0
2016-Apr-17 04:33N 01°16' E 103°54'0 0.1
2016-Apr-17 02:22N 01°16' E 103°54'2 2.1
2016-Apr-17 01:33N 01°14' E 103°53'5 5.5
2016-Apr-17 00:33N 01°15' E 103°59'  
Track history (hours):
 
Tides and Currents Weather Stations Pressure Air Temp Water Temp Dewpoint Dewpoint Depression Visibility Wind Speed Wind Dir Waves Ship Positions

Uni Wealth

Last reported at 2016-Apr-18 07:25 UTC. Time now 2016-May-04 11:43 UTC.
Position N 01°13' E 103°30'.
Warning: this ship's position is 16 days out of date.

Length 170 m; draft 10.3 m.

Type: Cargo ship. MMSI: 477621200.

Date/timePositionNaut miles runAvg speedWind from/ knotsBaromVisibWave heightAir tempDewpointWater temp
2016-Apr-18 07:25N 01°13' E 103°30'1012.0
2016-Apr-18 06:33N 01°11' E 103°40'10 9.9
2016-Apr-18 05:33N 01°11' E 103°50'6 5.5
2016-Apr-18 04:28N 01°16' E 103°54'0 0.0
2016-Apr-18 03:13N 01°16' E 103°54'0 0.1
2016-Apr-18 00:28N 01°16' E 103°54'0 0.0
2016-Apr-17 23:28N 01°16' E 103°54'0 0.0
2016-Apr-17 22:31N 01°16' E 103°54'0 0.0
2016-Apr-17 21:28N 01°16' E 103°54'0 0.0
2016-Apr-17 20:31N 01°16' E 103°54'0 0.0
2016-Apr-17 19:31N 01°16' E 103°54'0 0.0
2016-Apr-17 18:31N 01°16' E 103°54'0 0.0
2016-Apr-17 17:28N 01°16' E 103°54'0 0.0
2016-Apr-17 16:28N 01°16' E 103°54'0 0.0
2016-Apr-17 15:28N 01°16' E 103°54'0 0.0
2016-Apr-17 14:28N 01°16' E 103°54'0 0.0
2016-Apr-17 13:31N 01°16' E 103°54'0 0.0
2016-Apr-17 12:31N 01°16' E 103°54'0 0.1
2016-Apr-17 11:22N 01°16' E 103°54'0 0.1
2016-Apr-17 10:31N 01°16' E 103°54'0 0.0
2016-Apr-17 08:31N 01°16' E 103°54'0 0.1
2016-Apr-17 07:22N 01°16' E 103°54'0 0.1
2016-Apr-17 06:28N 01°16' E 103°54'0 0.1
2016-Apr-17 05:34N 01°16' E 103°54'0 0.0
2016-Apr-17 04:33N 01°16' E 103°54'0 0.1
2016-Apr-17 02:22N 01°16' E 103°54'2 2.1
2016-Apr-17 01:33N 01°14' E 103°53'5 5.5
2016-Apr-17 00:33N 01°15' E 103°59'  

Dump ship's entire track history